Date,TemperatureHighF,TemperatureAvgF,TemperatureLowF,DewpointHighF,DewpointAvgF,DewpointLowF,HumidityHigh,HumidityAvg,HumidityLow,PressureMaxIn,PressureMinIn,WindSpeedMaxMPH,WindSpeedAvgMPH,GustSpeedMaxMPH,PrecipitationSumIn
2013-1-1,43.1,31.0,22.2,27.8,21.0,12.4,97,69,45,30.37,30.27,5,0,0,0.03
2013-1-2,53.0,34.9,23.9,17.2,11.8,4.1,68,40,18,30.35,30.14,6,1,0,0.03
2013-1-3,43.7,34.7,30.2,12.8,9.0,4.1,45,34,25,30.36,30.17,11,1,16,0.00
2013-1-4,48.7,29.5,18.7,15.6,12.1,2.7,76,52,17,30.43,30.30,4,0,0,0.00
2013-1-5,53.8,29.7,16.6,19.3,14.4,6.3,83,59,17,30.52,30.38,3,0,0,0.00
2013-1-6,54.2,37.0,24.0,20.5,17.0,13.1,75,49,21,30.40,30.01,3,0,0,0.00
2013-1-7,55.1,37.0,24.5,22.5,18.5,12.7,78,51,25,30.06,29.92,4,0,0,0.00
2013-1-8,59.6,42.3,26.1,25.9,18.1,11.1,64,40,16,30.24,30.04,5,0,0,0.00
2013-1-9,65.3,46.1,29.9,26.5,23.4,16.9,75,45,17,30.31,30.05,4,0,0,0.00
2013-1-10,44.6,36.4,29.0,31.2,25.2,21.5,81,65,44,30.06,29.72,8,2,16,0.00
2013-1-11,39.7,28.0,17.7,22.0,8.4,-6.5,67,46,16,30.07,29.78,10,1,12,0.00
2013-1-12,38.4,23.5,11.9,9.6,4.9,-2.3,78,48,19,30.23,30.07,7,0,0,0.00
2013-1-13,36.7,21.1,8.9,8.3,4.8,1.0,79,52,23,30.27,30.13,4,0,0,0.00
2013-1-14,35.1,21.4,11.7,9.4,2.3,-7.6,81,46,26,30.42,30.17,4,0,0,0.00
2013-1-15,42.4,27.2,12.5,11.7,3.1,-4.9,55,36,18,30.55,30.42,4,0,0,0.00
2013-1-16,56.2,34.9,21.5,19.8,15.2,10.3,65,46,22,30.58,30.35,5,0,0,0.00
2013-1-17,58.3,38.8,27.5,19.7,17.2,15.5,62,44,21,30.44,30.29,4,0,0,0.00
2013-1-18,60.9,37.9,24.4,25.2,19.6,16.3,72,51,21,30.40,30.24,3,0,0,0.00
2013-1-19,63.9,36.5,24.6,25.4,18.2,13.2,77,52,17,30.41,30.26,3,0,0,0.00
2013-1-20,64.1,38.1,22.4,20.5,13.8,5.7,70,42,10,30.35,30.18,3,0,0,0.00
2013-1-21,65.0,41.8,28.6,18.4,12.1,2.2,60,34,9,30.29,30.17,5,0,0,0.00
2013-1-22,68.8,42.8,26.1,22.6,16.3,10.1,62,39,11,30.32,30.22,4,0,0,0.00
2013-1-23,66.3,44.0,27.9,32.4,24.8,18.1,69,49,20,30.35,30.23,2,0,0,0.00
2013-1-24,53.6,45.7,39.8,44.9,38.7,28.0,95,77,46,30.28,30.18,3,0,0,0.03
2013-1-25,59.3,49.5,42.4,49.6,46.1,40.8,97,89,65,30.25,30.02,2,0,0,0.27
2013-1-26,50.2,47.7,46.5,49.7,47.1,46.0,98,98,96,30.03,29.79,5,0,0,2.01
2013-1-27,53.7,46.7,42.7,50.4,45.5,40.9,99,96,83,29.96,29.84,4,0,0,0.18
2013-1-28,43.4,36.5,30.6,41.4,33.8,28.7,98,90,67,30.00,29.77,8,0,0,0.27
2013-1-29,37.1,29.5,20.1,29.8,24.8,18.7,96,83,59,30.33,29.99,3,0,0,0.01
2013-1-30,51.4,32.8,21.6,31.8,25.1,18.4,96,77,37,30.47,30.32,3,0,0,0.00
2013-1-31,62.4,38.4,26.0,36.9,30.1,24.9,98,76,31,30.41,30.22,3,0,0,0.01
2013-2-1,63.2,39.8,27.0,35.3,29.3,23.8,95,71,24,30.34,30.21,3,0,0,0.00
2013-2-2,67.3,44.7,30.6,34.2,30.5,26.1,90,62,22,30.39,30.21,3,0,0,0.00
2013-2-3,56.2,45.2,36.8,40.4,35.0,30.6,88,69,43,30.25,30.00,2,0,0,0.00
2013-2-4,65.8,44.6,33.3,37.3,31.6,25.6,92,65,24,30.11,29.98,3,0,0,0.00
2013-2-5,66.9,42.8,28.2,33.7,28.1,16.7,89,63,15,30.11,29.95,4,0,0,0.00
2013-2-6,61.7,43.5,32.7,45.0,35.7,29.5,94,77,36,30.09,29.91,5,0,0,0.02
2013-2-7,61.9,42.1,30.2,39.6,32.4,24.8,98,74,25,30.17,29.98,3,0,0,0.00
2013-2-8,55.1,42.0,35.0,36.7,27.3,15.5,91,59,36,29.98,29.73,9,1,0,0.00
2013-2-9,36.7,32.1,29.3,31.8,29.1,21.9,95,89,55,30.08,29.69,4,0,0,0.01
2013-2-10,35.4,30.8,25.8,32.3,28.9,24.6,96,93,82,30.10,29.98,4,0,0,0.02
2013-2-11,44.7,27.4,19.7,41.7,25.9,18.3,97,94,83,30.28,30.09,2,0,1,0.01
2013-2-12,47.3,29.3,17.2,26.7,22.1,15.5,95,78,38,30.43,30.28,5,0,0,0.01
2013-2-13,59.9,35.4,22.4,28.2,22.9,18.1,90,65,24,30.36,30.19,4,0,0,0.00
2013-2-14,60.7,42.7,24.8,29.3,23.4,19.6,91,51,25,30.27,30.14,6,1,0,0.00
2013-2-15,65.3,45.3,30.9,23.4,18.0,6.4,64,36,12,30.37,30.23,6,0,0,0.00
2013-2-16,71.8,42.6,26.3,25.4,19.7,4.4,74,47,9,30.40,30.09,4,0,0,0.00
2013-2-17,65.3,41.5,26.3,24.4,19.5,7.9,81,48,13,30.10,29.81,6,0,0,0.00
2013-2-18,63.2,40.0,25.6,26.9,21.8,12.8,83,55,15,30.12,29.97,6,0,0,0.00
2013-2-19,59.6,42.3,27.7,27.1,22.1,13.7,83,50,19,30.00,29.64,7,1,0,0.00
2013-2-20,42.7,33.0,29.5,34.0,29.5,20.9,96,89,44,29.94,29.59,5,0,0,0.11
2013-2-21,33.5,31.2,29.3,32.7,30.3,28.0,98,96,94,30.11,29.93,1,0,0,0.04
2013-2-22,48.3,31.2,20.1,35.5,27.0,18.9,98,86,37,30.25,30.10,4,0,0,0.13
2013-2-23,54.4,37.0,22.2,30.6,25.1,20.8,96,66,36,30.26,29.86,7,1,0,0.01
2013-2-24,44.6,35.0,27.2,26.1,14.7,6.9,88,46,22,30.17,29.89,8,1,15,0.00
2013-2-25,56.8,34.8,21.3,22.7,17.7,7.2,81,56,14,30.29,30.09,4,0,0,0.00
2013-2-26,58.3,38.4,21.5,22.9,10.9,-1.2,91,41,11,30.22,30.03,8,1,0,0.00
2013-2-27,55.3,41.1,27.6,13.3,6.4,-3.2,50,24,13,30.31,30.18,7,1,14,0.00
2013-2-28,64.3,43.2,30.9,19.4,7.9,-4.9,48,25,10,30.41,30.29,5,0,0,0.00
2013-3-1,71.7,47.2,28.5,28.3,22.5,12.7,71,41,17,30.45,30.27,7,0,0,0.00
2013-3-2,75.3,49.7,32.1,35.5,29.1,15.9,80,51,11,30.37,30.10,4,0,0,0.00
2013-3-3,62.9,49.2,33.0,37.2,29.5,22.6,87,50,25,30.13,29.92,3,0,0,0.00
2013-3-4,66.7,51.2,38.5,35.2,30.6,26.2,71,47,26,30.08,29.85,5,0,0,0.00
2013-3-5,67.2,46.9,31.2,33.6,29.7,23.1,89,57,20,30.18,30.02,4,0,0,0.00
2013-3-6,70.5,49.1,32.4,38.0,30.2,25.4,91,54,20,30.07,29.88,8,0,0,0.00
2013-3-7,69.0,48.5,31.0,35.4,29.2,21.4,90,52,20,29.95,29.83,7,1,0,0.00
2013-3-8,49.5,37.4,32.0,40.6,34.1,29.8,98,89,47,29.92,29.62,6,0,13,1.12
2013-3-9,38.1,32.8,31.3,37.5,32.3,30.8,98,98,98,30.20,29.92,0,0,0,0.18
2013-3-10,63.3,39.1,28.1,44.1,31.8,25.6,99,80,26,30.33,30.19,8,0,0,0.01
2013-3-11,71.2,44.5,27.6,38.6,31.5,25.3,93,67,21,30.27,30.07,4,0,0,0.00
2013-3-12,75.5,51.0,31.1,38.3,32.2,26.4,93,56,18,30.19,30.06,6,0,0,0.00
2013-3-13,78.9,55.4,35.1,38.1,32.4,25.0,88,48,15,30.24,30.08,4,0,0,0.00
2013-3-14,86.8,60.2,46.1,41.3,33.3,19.5,68,42,10,30.18,29.98,4,0,0,0.00
2013-3-15,80.7,57.0,40.1,39.8,35.2,28.7,81,50,17,30.05,29.85,5,0,0,0.00
2013-3-16,77.9,54.8,41.5,44.0,37.0,27.7,86,58,18,29.89,29.68,6,0,0,0.00
2013-3-17,76.3,53.1,37.1,39.6,24.3,-10.8,91,44,4,29.88,29.72,10,0,16,0.00
2013-3-18,75.1,52.8,34.3,36.0,28.3,16.0,75,45,12,29.98,29.85,5,0,0,0.00
2013-3-19,75.9,54.5,42.7,41.3,32.8,21.3,79,50,14,30.06,29.89,7,0,0,0.00
2013-3-20,71.6,54.2,39.9,38.1,34.1,30.2,78,50,24,30.06,29.81,7,0,0,0.00
2013-3-21,76.1,55.0,40.6,39.1,32.2,2.5,84,50,7,29.81,29.62,9,0,15,0.00
2013-3-22,71.2,50.1,34.5,34.7,20.1,-1.5,74,36,9,29.80,29.61,7,0,14,0.00
2013-3-23,63.9,46.1,32.2,17.5,7.8,-12.2,53,24,4,30.04,29.80,7,0,0,0.00
2013-3-24,69.4,49.1,28.3,19.1,12.9,4.1,60,26,12,30.08,29.87,6,0,0,0.00
2013-3-25,73.2,51.5,32.1,28.5,19.7,7.5,57,32,12,30.05,29.87,5,0,0,0.00
2013-3-26,73.2,53.6,35.8,29.7,25.1,18.9,70,37,13,29.98,29.81,5,0,0,0.00
2013-3-27,72.9,52.8,35.4,31.9,25.5,18.0,72,39,15,29.97,29.86,5,0,14,0.00
2013-3-28,74.7,52.4,34.5,31.6,28.5,24.2,76,44,17,30.06,29.96,6,0,0,0.00
2013-3-29,79.5,57.5,38.8,35.2,30.6,23.0,73,41,14,30.12,29.96,5,0,0,0.00
2013-3-30,76.4,54.9,41.3,38.7,32.7,26.3,67,47,18,30.06,29.94,6,0,0,0.00
2013-3-31,79.7,58.2,38.7,37.9,32.3,27.2,79,44,17,30.03,29.84,6,1,0,0.00
2013-4-1,73.3,55.9,38.8,39.1,28.7,19.8,83,41,17,29.92,29.80,10,1,0,0.00
2013-4-2,73.0,54.5,34.6,31.1,27.4,22.5,74,39,16,29.94,29.79,10,1,13,0.00
2013-4-3,77.9,57.8,39.6,35.9,30.3,20.4,72,40,15,30.03,29.90,7,0,0,0.00
2013-4-4,79.8,58.4,37.8,33.8,27.8,20.5,64,36,11,30.08,29.90,5,0,0,0.00
2013-4-5,79.5,60.2,41.6,35.0,31.8,27.3,70,38,17,29.92,29.75,8,1,0,0.00
2013-4-6,79.0,58.3,39.7,37.1,32.4,29.2,73,42,18,29.92,29.76,6,0,0,0.00
2013-4-7,77.7,57.9,39.8,37.4,32.0,26.1,75,43,17,29.86,29.66,7,0,0,0.00
2013-4-8,64.3,51.4,43.0,41.4,33.3,23.3,67,50,35,29.66,29.25,16,1,20,0.02
2013-4-9,53.4,42.6,38.0,40.0,36.2,28.5,96,80,41,29.67,29.43,4,0,0,0.10
2013-4-26,49.7,48.4,47.0,30.6,29.0,27.9,52,47,43,30.09,30.08,0,0,0,0.00
2013-4-27,85.5,63.8,39.4,30.7,17.8,1.1,59,24,6,30.10,29.86,6,0,0,0.00
2013-4-28,89.0,63.2,42.8,29.1,20.7,8.7,43,24,6,29.91,29.67,5,0,0,0.00
2013-4-29,92.1,68.1,44.5,32.2,22.8,5.2,53,22,4,29.80,29.55,7,0,0,0.00
2013-4-30,87.8,68.8,47.7,35.2,21.5,10.5,53,20,6,29.68,29.54,11,1,0,0.00
2013-5-1,86.0,66.7,44.5,30.3,16.9,-14.3,49,19,3,30.03,29.67,12,1,12,0.00
2013-5-2,76.3,61.9,49.6,19.7,5.7,-10.3,24,11,4,30.18,30.02,13,2,17,0.00
2013-5-3,83.9,63.3,40.7,25.7,14.3,-4.9,37,17,4,30.11,29.74,5,0,0,0.00
2013-5-4,83.2,62.9,41.3,28.2,19.3,1.9,51,24,5,29.79,29.61,5,0,0,0.00
2013-5-5,77.2,62.6,51.5,39.3,24.8,16.8,50,25,14,29.81,29.70,6,1,0,0.00
2013-5-6,72.6,59.9,48.6,42.7,38.1,30.6,66,45,29,29.88,29.77,7,1,0,0.00
2013-5-7,69.0,57.3,42.5,45.7,39.3,26.9,91,54,24,29.90,29.75,9,1,14,0.04
2013-5-8,72.3,55.5,36.0,41.2,35.3,28.9,96,54,22,30.02,29.89,5,0,0,0.01
2013-5-9,78.0,58.4,40.1,38.6,34.8,26.2,78,46,16,29.96,29.85,9,0,0,0.00
2013-5-10,81.1,62.3,43.0,41.1,35.4,27.1,76,42,15,30.06,29.88,6,0,0,0.00
2013-5-11,84.9,68.8,54.3,41.6,34.4,25.8,49,31,12,30.07,29.95,7,1,0,0.00
2013-5-12,90.8,68.8,47.8,37.4,30.9,21.3,62,29,9,30.10,29.87,6,0,0,0.00
2013-5-13,94.0,71.6,48.8,38.6,31.1,22.3,53,27,8,30.03,29.78,7,0,0,0.00
2013-5-14,93.5,70.1,51.0,45.0,35.3,26.3,64,32,11,29.89,29.69,5,0,0,0.00
2013-5-15,89.3,70.6,50.5,40.5,27.5,9.6,62,25,7,29.85,29.69,7,1,13,0.00
2013-5-16,88.6,67.8,45.0,36.5,24.5,12.0,51,23,6,29.83,29.66,7,1,12,0.00
2013-5-17,80.9,65.4,46.4,33.0,28.2,22.6,55,26,15,29.78,29.72,10,1,0,0.00
2013-5-18,81.5,65.4,45.8,38.6,33.2,28.4,61,32,19,29.84,29.71,6,1,0,0.00
2013-5-19,84.9,67.3,46.2,39.4,30.2,20.3,68,30,11,29.83,29.63,12,1,14,0.00
2013-5-20,82.7,66.2,47.3,31.6,25.0,13.7,49,24,8,29.84,29.71,8,1,0,0.00
2013-5-21,89.2,67.8,45.6,36.2,27.5,20.0,60,26,10,29.87,29.66,7,1,0,0.00
2013-5-22,88.0,69.8,45.8,32.8,26.2,21.1,55,23,9,29.71,29.55,7,1,0,0.00
2013-5-23,87.6,71.8,54.9,30.4,24.7,18.2,32,18,9,29.70,29.60,7,1,0,0.00
2013-5-24,88.2,68.8,47.4,37.0,25.2,11.7,60,24,6,29.84,29.70,7,1,0,0.00
2013-5-25,88.5,68.3,45.9,36.8,22.3,7.5,57,23,5,29.85,29.75,6,1,0,0.00
2013-5-26,86.5,67.0,44.5,31.5,20.3,2.5,53,21,4,29.87,29.75,5,1,0,0.00
2013-5-27,85.5,65.4,47.7,37.9,27.0,18.7,51,26,11,29.83,29.66,4,0,0,0.00
2013-5-28,83.6,65.9,46.1,37.9,32.2,28.2,60,31,16,29.70,29.50,7,1,0,0.00
2013-5-29,89.3,69.5,47.9,40.3,32.9,27.1,67,31,13,29.65,29.50,10,1,17,0.00
2013-5-30,90.8,71.1,50.5,46.2,39.5,31.3,61,34,19,29.72,29.60,7,1,0,0.00
2013-5-31,95.4,74.6,53.1,48.1,42.8,33.6,68,36,13,29.78,29.62,8,0,0,0.00
2013-6-1,96.8,80.0,61.1,43.4,24.3,12.2,49,15,6,29.77,29.58,9,1,14,0.00
2013-6-2,97.2,78.0,57.5,40.5,31.2,20.6,42,20,8,29.68,29.52,8,1,0,0.00
2013-6-3,94.8,75.3,54.7,42.3,31.1,22.7,55,24,8,29.70,29.59,8,1,0,0.00
2013-6-4,94.8,74.2,51.7,40.1,29.3,21.4,54,23,8,29.76,29.64,6,1,0,0.00
2013-6-5,99.0,75.4,52.5,41.0,30.3,23.0,48,22,8,29.77,29.60,7,0,0,0.00
2013-6-6,100.1,77.7,54.6,42.1,30.8,16.4,50,22,6,29.72,29.55,5,0,0,0.00
2013-6-7,103.3,79.7,56.3,42.3,27.5,4.1,46,19,4,29.68,29.49,9,0,0,0.00
2013-6-8,104.5,81.9,57.4,40.0,28.7,19.2,47,18,6,29.68,29.53,10,1,0,0.00
2013-6-9,104.3,81.1,60.0,41.7,31.1,18.3,47,19,6,29.73,29.58,5,0,0,0.00
2013-6-10,99.4,78.7,55.9,41.3,22.9,3.0,49,17,4,29.75,29.62,7,1,0,0.00
2013-6-11,100.6,79.1,55.0,37.6,26.2,8.9,42,17,5,29.78,29.66,9,1,14,0.00
2013-6-12,69.0,62.1,58.2,41.0,32.3,28.1,47,33,23,29.80,29.76,1,0,0,0.00
2013-6-19,94.8,85.4,66.7,27.7,21.2,16.4,20,10,6,29.64,29.55,9,2,13,0.00
2013-6-20,94.8,75.7,52.0,37.0,25.6,16.7,47,19,6,29.70,29.60,6,1,0,0.00
2013-6-21,95.0,76.2,53.4,39.5,26.4,15.2,54,20,7,29.74,29.62,9,1,0,0.00
2013-6-22,94.5,74.0,52.0,37.4,29.7,21.8,52,23,8,29.75,29.60,6,1,13,0.00
2013-6-23,94.8,74.6,52.1,36.0,24.4,10.0,50,19,5,29.72,29.56,13,1,19,0.00
2013-6-24,92.0,75.0,56.8,35.9,28.3,19.9,43,20,8,29.73,29.61,8,1,14,0.00
2013-6-25,95.0,75.5,53.5,41.6,32.7,24.9,63,24,9,29.82,29.72,7,1,0,0.00
2013-6-26,98.9,78.0,54.8,37.8,29.4,13.5,52,22,5,29.90,29.78,5,0,0,0.00
2013-6-27,104.5,81.6,56.6,45.2,35.5,19.8,54,24,5,29.94,29.74,5,0,0,0.00
2013-6-28,109.1,83.5,62.2,48.2,40.7,30.4,55,25,8,29.80,29.65,6,0,0,0.00
2013-6-29,106.7,84.6,65.4,52.7,41.3,34.0,49,25,9,29.75,29.57,5,0,0,0.00
2013-6-30,103.8,84.1,68.4,55.3,44.1,32.0,48,27,11,29.69,29.54,8,0,12,0.00
2013-7-1,105.7,84.6,69.9,58.6,51.2,43.1,64,34,13,29.75,29.55,7,0,0,0.00
2013-7-2,98.5,76.3,63.9,67.5,57.1,47.1,83,55,24,29.84,29.63,8,0,0,0.02
2013-7-3,95.4,76.7,60.2,62.2,54.0,49.5,81,49,23,29.80,29.62,8,0,0,0.00
2013-7-4,99.9,82.4,63.3,56.0,51.4,46.4,64,38,18,29.70,29.51,5,0,0,0.00
2013-7-5,92.3,80.2,70.3,61.7,54.9,50.2,65,43,25,29.67,29.55,4,0,0,0.00
2013-7-6,97.4,76.7,64.8,67.6,56.4,52.0,86,52,24,29.69,29.57,6,0,0,0.03
2013-7-7,99.3,79.4,60.7,59.2,54.0,46.3,85,47,20,29.74,29.60,8,0,0,0.00
2013-7-8,103.9,84.0,63.6,57.9,49.3,37.9,69,35,11,29.79,29.64,11,0,0,0.00
2013-7-9,103.7,83.4,65.0,58.9,51.0,35.8,62,36,10,29.85,29.66,6,0,0,0.00
2013-7-10,99.1,77.8,67.8,68.6,61.2,51.5,94,61,25,29.78,29.64,6,0,0,0.11
2013-7-11,86.8,75.4,65.9,67.3,63.0,60.3,92,68,42,29.81,29.69,9,0,0,0.00
2013-7-12,90.4,70.6,61.4,65.3,61.5,57.5,97,77,35,29.84,29.72,6,0,0,0.00
2013-7-13,94.5,76.1,59.3,64.4,58.6,50.7,98,61,27,29.89,29.75,8,0,0,0.01
2013-7-14,100.3,80.8,63.7,62.5,56.4,51.3,79,47,20,29.81,29.64,6,1,0,0.00
2013-7-15,96.8,78.5,64.6,62.4,57.3,52.4,79,51,24,29.71,29.59,7,0,12,0.00
2013-7-16,85.3,74.9,66.0,63.2,60.4,55.3,87,62,42,29.88,29.69,6,0,0,0.00
2013-7-17,90.6,71.2,60.0,70.8,63.2,57.8,95,79,36,29.95,29.84,7,0,0,0.06
2013-7-18,92.8,75.8,62.2,66.7,61.8,54.4,97,66,34,29.92,29.71,6,0,0,0.02
2013-7-19,96.0,74.5,64.2,68.3,62.4,57.8,97,71,29,29.81,29.64,20,0,20,1.16
2013-7-20,87.8,71.3,61.8,72.6,65.7,61.2,98,85,46,29.79,29.63,8,0,0,0.35
2013-7-21,84.3,71.7,64.6,68.5,65.1,62.6,98,82,51,29.82,29.69,4,0,0,0.07
2013-7-22,83.9,73.0,63.9,66.8,64.4,61.2,96,76,52,29.86,29.76,4,0,0,0.00
2013-7-23,88.5,73.2,62.4,66.8,63.8,61.2,97,76,45,29.87,29.76,5,0,0,0.00
2013-7-25,91.3,79.4,68.9,69.0,66.3,61.1,89,66,40,29.87,29.75,4,0,0,0.19
2013-7-26,77.8,70.0,65.6,68.7,66.1,63.7,97,88,70,29.97,29.86,1,0,0,0.06
2013-7-27,66.6,65.9,65.6,60.9,60.5,59.6,83,83,82,29.76,29.76,1,0,0,0.01
2013-7-28,88.5,70.8,59.8,70.1,61.5,57.6,96,76,39,29.78,29.66,7,0,0,0.16
2013-7-29,92.0,74.7,58.8,62.9,56.2,46.4,98,59,26,29.91,29.76,6,0,0,0.00
2013-7-30,97.4,75.9,57.5,57.5,51.8,43.7,83,49,17,30.00,29.86,5,0,0,0.00
2013-7-31,98.8,79.5,61.4,61.9,54.7,47.9,77,48,19,29.94,29.77,7,0,0,0.00
2013-8-1,92.5,76.9,65.0,63.6,60.4,56.6,85,60,32,29.83,29.71,7,0,0,0.00
2013-8-2,95.8,78.5,62.4,63.5,57.5,48.1,89,54,23,29.82,29.69,12,0,12,0.00
2013-8-3,97.2,79.5,62.8,63.6,55.3,47.6,83,49,20,29.84,29.71,6,0,0,0.00
2013-8-4,95.3,78.6,65.2,59.2,54.5,47.3,76,47,24,29.83,29.74,10,0,14,0.00
2013-8-5,94.5,75.5,60.5,57.2,53.1,46.1,79,50,21,29.86,29.74,12,0,12,0.00
2013-8-6,76.3,68.2,62.0,64.0,59.5,54.5,96,75,52,29.89,29.77,10,0,0,0.10
2013-8-7,90.8,73.2,60.4,61.6,57.2,49.8,97,63,27,29.95,29.78,7,0,0,0.02
2013-8-8,94.3,74.3,54.9,54.3,43.2,29.9,80,41,11,29.86,29.71,5,0,0,0.00
2013-8-9,94.5,74.3,53.8,43.4,38.1,31.2,62,32,11,29.83,29.73,8,0,13,0.00
2013-8-10,93.0,74.3,56.6,57.7,39.6,32.3,60,33,13,29.89,29.78,6,0,0,0.02
2013-8-11,90.8,70.6,58.2,56.1,51.3,47.6,75,53,27,29.88,29.82,4,0,0,0.00
2013-8-12,96.7,84.1,65.6,47.9,44.1,39.5,46,26,16,29.79,29.68,7,0,12,0.00
2013-8-13,99.3,77.7,56.5,46.8,40.3,30.6,62,31,11,29.88,29.73,5,0,0,0.00
2013-8-14,99.1,78.4,58.6,48.6,43.2,37.0,54,32,14,29.84,29.70,7,0,0,0.00
2013-8-15,98.6,81.0,68.5,59.0,51.8,44.5,71,38,20,29.84,29.73,5,0,0,0.00
2013-8-16,100.1,85.5,65.2,55.2,52.4,45.5,65,36,17,29.85,29.77,6,1,0,0.00
2013-8-17,99.0,85.5,67.5,65.1,55.6,47.2,86,41,21,29.84,29.72,9,1,0,0.07
2013-8-19,92.9,82.0,65.9,58.8,53.1,49.6,60,38,27,29.83,29.73,6,1,0,0.00
2013-8-20,100.3,79.2,58.2,54.3,50.2,43.2,76,42,15,29.84,29.66,9,0,13,0.00
2013-8-21,82.2,76.1,66.3,61.2,56.2,49.5,73,51,38,29.84,29.72,5,0,0,0.00
2013-8-22,94.3,76.8,64.7,63.1,56.2,51.6,83,53,26,29.86,29.67,6,0,0,0.02
2013-8-23,93.0,75.5,59.5,61.2,56.0,50.5,91,56,25,29.81,29.65,10,0,0,0.00
2013-8-24,86.5,70.2,64.1,66.3,58.6,51.6,94,68,38,29.88,29.72,3,0,0,0.10
2013-8-25,71.8,66.4,63.0,67.1,63.2,58.8,97,90,77,29.97,29.83,1,0,0,0.64
2013-8-26,85.6,71.9,63.3,70.7,65.1,60.9,98,81,52,29.97,29.77,7,0,0,0.12
2013-8-27,92.3,74.7,62.8,66.0,60.8,55.9,93,66,34,29.86,29.69,5,0,0,0.00
2013-8-28,91.3,73.7,60.6,65.6,60.5,57.1,92,67,34,29.86,29.72,5,0,0,0.00
2013-8-29,89.7,73.9,60.6,65.9,61.8,58.4,95,69,40,30.00,29.82,5,0,0,0.87
2013-8-30,86.5,69.4,63.9,71.1,66.0,62.7,98,90,51,29.98,29.82,5,0,0,0.72
2013-8-31,84.1,68.7,63.3,71.0,66.1,62.7,99,92,58,29.92,29.80,9,0,0,0.17
2013-9-1,89.9,72.7,60.7,69.2,63.3,59.9,99,76,38,29.89,29.74,7,0,0,0.01
2013-9-2,91.9,74.9,59.9,65.9,61.3,57.7,97,67,34,29.86,29.71,7,0,0,0.00
2013-9-3,96.8,77.6,60.3,62.5,58.0,48.3,93,57,24,29.85,29.71,6,0,0,0.00
2013-9-4,95.5,76.6,63.6,67.6,59.8,54.3,93,61,28,29.85,29.73,4,0,0,0.07
2013-9-5,93.4,73.9,60.1,67.1,58.5,49.5,96,65,25,29.89,29.78,5,0,0,0.01
2013-9-6,96.5,75.4,61.3,63.2,56.9,49.0,89,59,23,29.89,29.70,7,0,0,0.07
2013-9-7,86.8,72.8,62.2,64.4,60.6,55.8,91,68,39,29.85,29.72,7,0,0,0.00
2013-9-8,76.2,65.9,62.8,67.2,62.8,59.6,97,90,67,29.83,29.71,3,0,0,0.66
2013-9-9,68.1,63.2,58.9,66.9,62.7,58.6,99,98,93,29.80,29.65,3,0,0,1.06
2013-9-10,71.7,62.7,58.0,65.6,60.8,57.7,100,94,74,29.85,29.74,4,0,0,0.58
2013-9-11,78.8,64.9,55.6,65.0,59.3,54.1,99,84,48,29.95,29.84,5,0,0,0.54
2013-9-12,86.6,67.0,51.6,61.1,55.0,48.3,99,71,30,29.94,29.75,5,0,0,0.01
2013-9-13,87.5,69.6,55.1,59.3,55.3,48.1,96,66,27,29.79,29.59,6,0,0,0.00
2013-9-14,87.9,69.4,55.2,61.8,56.0,49.3,95,68,29,29.72,29.58,6,0,0,0.00
2013-9-15,89.7,69.6,54.3,59.0,55.6,52.6,96,66,30,29.79,29.69,5,0,0,0.00
2013-9-16,92.0,73.6,56.5,62.1,57.0,50.7,89,60,31,29.83,29.67,5,0,0,0.00
2013-9-17,89.5,72.2,58.1,63.6,58.5,54.5,94,66,33,29.76,29.57,4,0,0,0.00
2013-9-18,89.0,70.6,55.8,61.6,48.7,33.7,93,54,18,29.68,29.58,9,1,0,0.00
2013-9-19,90.6,68.6,51.6,53.6,46.6,38.0,82,51,17,29.76,29.66,5,0,0,0.00
2013-9-20,89.7,69.8,51.5,53.2,48.0,43.3,85,52,22,29.81,29.69,5,0,0,0.00
2013-9-21,87.7,71.1,55.3,57.6,52.7,48.7,85,55,32,29.79,29.58,6,0,0,0.00
2013-9-22,78.1,67.1,49.8,52.8,38.9,13.9,62,39,11,29.73,29.48,11,1,17,0.00
2013-9-23,85.2,62.3,43.7,46.5,40.1,32.9,78,48,20,29.92,29.73,5,0,0,0.00
2013-9-24,85.1,64.7,45.2,44.1,38.5,32.8,75,43,17,29.97,29.77,5,0,0,0.00
2013-9-25,81.5,65.5,49.3,45.8,39.2,33.0,71,42,20,29.77,29.56,7,1,0,0.00
2013-9-26,78.3,64.7,52.5,52.3,42.4,34.3,90,48,22,29.64,29.51,11,1,0,0.07
2013-9-27,73.5,59.5,49.5,48.5,31.6,19.3,84,40,15,29.97,29.64,8,0,0,0.00
2013-9-28,79.2,61.0,46.4,35.1,28.9,19.5,60,32,12,30.08,29.95,6,0,0,0.00
2013-9-29,82.7,60.4,40.6,45.5,38.3,29.4,75,48,21,30.11,29.93,4,0,0,0.00
2013-9-30,84.8,61.5,42.6,42.8,37.4,26.9,79,48,13,29.99,29.81,4,0,0,0.00
2013-10-1,83.0,63.0,42.4,40.7,35.6,31.5,78,42,17,29.95,29.82,6,0,0,0.00
2013-10-7,66.7,57.3,49.6,33.4,30.8,26.5,49,37,23,29.91,29.89,0,0,0,0.00
2013-10-8,78.5,60.4,42.7,39.1,31.0,26.6,68,37,15,29.89,29.70,7,1,0,0.00
2013-10-9,72.8,59.3,46.5,45.1,35.9,27.3,61,44,21,29.70,29.56,7,1,0,0.00
2013-10-10,55.9,46.3,36.9,44.4,40.0,35.4,96,80,57,30.01,29.59,10,0,17,0.33
2013-10-11,69.3,48.7,33.0,45.1,38.7,32.0,98,74,32,30.11,29.96,5,0,0,0.01
2013-10-12,73.5,53.2,36.0,42.4,37.7,32.8,95,62,25,30.03,29.88,6,0,0,0.00
2013-10-13,72.8,54.6,37.9,45.2,36.9,30.9,94,57,25,29.97,29.84,10,1,0,0.00
2013-10-14,71.0,51.7,36.4,37.1,30.9,16.4,89,51,15,30.05,29.93,4,0,0,0.00
2013-10-15,70.8,53.1,34.8,34.3,30.0,23.0,85,47,18,30.01,29.86,8,0,0,0.00
2013-10-16,70.5,54.9,40.1,35.3,29.6,25.3,69,40,19,30.07,29.95,7,1,0,0.00
2013-10-17,72.6,50.0,32.8,34.4,27.9,18.7,83,49,14,30.11,29.92,7,0,0,0.00
2013-10-18,74.7,54.2,35.3,32.6,25.7,18.3,71,38,15,30.08,29.97,5,0,0,0.00
2013-10-19,76.2,53.6,36.4,30.6,25.1,18.8,65,37,12,30.11,29.94,5,0,0,0.00
2013-10-20,77.3,52.9,34.6,32.5,26.1,19.2,70,41,13,30.01,29.84,4,0,0,0.00
2013-10-21,77.2,56.3,36.5,32.8,25.8,19.6,66,35,15,30.06,29.95,4,0,0,0.00
2013-10-22,78.6,56.7,39.7,32.8,27.4,19.7,64,36,12,30.10,29.94,4,0,0,0.00
2013-10-23,80.2,57.1,40.4,35.8,29.4,21.7,64,39,13,30.03,29.88,5,0,0,0.00
2013-10-24,79.3,60.4,46.9,45.5,31.7,20.2,64,37,14,29.97,29.86,7,0,0,0.00
2013-10-25,76.3,58.0,40.6,42.5,33.5,23.8,76,44,17,30.08,29.97,5,0,0,0.00
2013-10-26,77.4,60.5,43.0,42.1,35.8,30.2,75,44,21,30.15,30.01,4,0,0,0.00
2013-10-27,77.0,59.5,42.5,39.8,33.5,26.4,76,42,20,30.02,29.69,5,0,0,0.00
2013-10-28,69.0,59.2,49.4,40.8,33.0,28.5,53,37,28,29.73,29.65,10,1,12,0.00
2013-10-29,57.4,51.1,40.7,44.9,38.4,31.7,76,62,41,29.89,29.71,9,1,0,0.00
2013-10-30,60.5,46.1,35.2,38.3,31.4,25.8,89,60,30,30.08,29.88,6,0,0,0.00
2013-10-31,64.1,44.6,29.4,34.5,28.4,24.6,89,57,24,30.20,30.06,4,0,0,0.00
2013-11-1,72.2,49.4,32.2,34.0,27.4,22.6,75,46,20,30.26,30.10,8,0,0,0.00
2013-11-2,74.8,57.4,37.3,33.3,24.6,17.3,66,32,13,30.17,29.89,4,0,0,0.00
2013-11-3,70.8,53.5,40.2,38.9,29.9,22.7,66,42,24,29.89,29.72,8,0,0,0.00
2013-11-4,66.7,49.7,33.6,36.8,30.1,24.0,80,50,28,29.87,29.72,6,0,0,0.00
2013-11-5,63.1,47.5,35.6,36.1,26.3,7.0,81,47,25,30.24,29.85,7,0,0,0.00
2013-11-6,68.2,48.6,29.5,18.2,7.8,-8.6,50,22,7,30.38,30.24,5,0,0,0.00
2013-11-7,72.5,51.2,37.2,27.0,17.9,8.0,51,29,13,30.33,30.09,3,0,0,0.00
2013-11-8,71.2,48.3,32.7,31.7,24.3,16.8,64,42,17,30.19,30.02,3,0,0,0.00
2013-11-9,72.0,50.0,34.5,36.0,29.7,24.7,77,49,19,30.19,30.07,5,0,0,0.00
2013-11-10,72.0,50.2,36.3,38.5,32.1,27.6,75,53,25,30.24,30.11,3,0,0,0.00
2013-11-11,77.5,59.1,39.4,34.5,27.1,17.8,70,35,16,30.22,30.10,7,1,0,0.00
2013-11-12,78.3,63.4,50.4,30.1,22.5,14.6,38,21,13,30.22,30.07,7,0,0,0.00
2013-11-13,72.8,55.7,43.9,43.3,34.2,21.9,70,46,29,30.17,29.96,4,0,0,0.00
2013-11-14,71.7,51.9,36.8,39.1,33.1,23.8,87,54,18,30.06,29.83,5,0,0,0.00
2013-11-15,65.9,51.6,41.5,45.9,39.8,32.6,95,66,43,29.84,29.57,8,0,0,0.22
2013-11-16,59.1,50.1,42.9,48.2,43.8,38.8,97,80,56,29.89,29.67,6,0,0,0.00
2013-11-17,59.7,46.3,37.4,44.9,40.2,35.7,96,81,50,30.14,29.89,4,0,0,0.00
2013-11-18,66.7,46.7,34.4,45.1,38.6,33.3,98,77,40,30.22,30.05,3,0,0,0.00
2013-11-19,65.3,48.7,35.6,47.3,40.3,34.3,97,76,47,30.08,29.86,4,0,0,0.00
2013-11-20,54.7,47.6,41.7,47.8,44.5,38.7,97,89,67,29.92,29.80,2,0,0,0.08
2013-11-21,53.4,48.1,43.6,48.4,45.7,42.2,97,92,76,29.97,29.87,7,0,0,0.36
2013-11-22,47.7,44.3,42.6,45.6,43.1,40.9,98,95,84,29.96,29.84,5,0,0,0.93
2013-11-23,39.8,39.4,39.2,39.0,38.6,37.8,97,97,96,30.11,30.10,1,0,0,0.65
2013-11-24,44.9,38.6,31.0,40.9,37.1,30.3,98,94,80,30.22,30.09,3,0,0,0.02
2013-11-25,56.4,38.7,28.3,42.9,33.0,24.2,99,83,33,30.35,30.21,4,0,0,0.01
2013-11-26,59.4,43.6,30.9,36.2,31.8,28.8,93,67,34,30.40,30.26,5,0,0,0.00
2013-11-27,56.2,46.0,38.4,34.8,30.6,24.8,81,57,30,30.32,30.06,5,0,0,0.00
2013-11-28,58.9,44.9,32.0,36.1,32.1,28.6,94,65,33,30.24,30.10,4,0,0,0.00
2013-11-29,61.8,42.1,31.2,39.8,34.6,29.4,96,78,40,30.30,30.19,3,0,0,0.00
2013-11-30,61.7,43.4,31.5,41.2,35.2,30.5,98,76,37,30.30,30.15,3,0,0,0.00
2013-12-1,58.5,41.7,32.3,40.6,34.3,30.3,94,77,48,30.34,30.21,2,0,0,0.00
2013-12-2,61.6,41.4,29.4,40.5,32.2,27.3,94,74,30,30.27,29.96,3,0,0,0.00
2013-12-3,58.4,44.5,31.3,37.9,32.5,28.7,95,66,40,29.97,29.68,5,0,0,0.00
2013-12-4,50.1,39.6,29.0,42.0,34.4,27.8,96,83,55,29.90,29.59,10,1,0,0.00
2013-12-5,41.9,31.4,22.9,30.1,23.0,15.6,97,74,39,30.15,29.90,5,0,0,0.00
2013-12-6,40.4,26.3,16.9,19.7,16.1,3.0,93,70,24,30.32,30.15,3,0,0,0.00
2013-12-7,38.3,29.1,17.4,32.0,22.7,15.4,93,78,55,30.24,30.01,6,1,0,0.00
2013-12-8,41.2,34.4,27.1,32.7,29.0,23.6,96,81,58,30.15,30.01,8,0,0,0.00
2013-12-9,38.4,27.5,19.5,23.9,11.1,3.3,93,55,26,30.56,30.13,5,0,0,0.00
2013-12-10,49.3,29.2,16.2,19.5,12.4,6.1,78,54,22,30.56,30.30,2,0,0,0.00
2013-12-11,57.3,34.4,18.9,21.2,16.0,9.2,83,53,18,30.46,30.36,4,0,0,0.00
2013-12-12,60.4,40.6,28.8,42.5,27.5,20.0,85,63,31,30.44,30.15,6,0,0,0.00
2013-12-13,55.6,38.2,28.0,36.5,30.4,22.6,95,76,45,30.26,30.09,4,0,0,0.00
2013-12-14,53.7,40.5,28.7,25.2,20.5,14.2,80,47,26,30.45,30.26,10,0,0,0.00
2013-12-15,63.5,43.7,28.1,27.5,22.1,18.2,74,46,22,30.47,30.31,5,0,0,0.00
2013-12-16,70.5,48.0,34.1,31.5,25.3,20.2,66,45,16,30.35,30.21,3,0,0,0.00
2013-12-17,68.2,46.5,31.8,36.9,28.3,23.1,75,52,25,30.36,30.19,2,0,0,0.00
2013-12-18,60.8,43.9,31.5,40.9,30.9,24.6,79,62,32,30.20,29.86,2,0,0,0.00
2013-12-19,54.8,46.1,35.5,32.1,29.7,27.1,79,54,36,29.86,29.66,6,0,0,0.00
2013-12-20,47.1,38.4,32.1,43.0,37.0,31.3,98,95,84,29.83,29.69,7,0,0,0.00
2013-12-21,40.1,34.4,30.5,36.3,33.0,29.8,98,95,81,30.12,29.80,3,0,0,0.00
2013-12-22,48.4,34.4,25.9,35.8,29.6,25.2,98,85,47,30.42,30.12,5,0,0,0.00
2013-12-23,55.7,38.7,28.4,31.3,26.7,24.1,91,65,34,30.52,30.41,4,0,0,0.00
2013-12-24,58.3,41.9,26.9,36.2,28.3,24.6,91,62,34,30.42,30.23,6,0,0,0.00
2013-12-25,57.6,45.6,37.9,27.0,14.6,6.2,48,29,14,30.38,30.25,8,1,0,0.00
2013-12-26,58.9,43.4,27.8,24.1,15.9,4.2,67,36,14,30.37,30.23,7,0,0,0.00
2013-12-27,63.4,43.7,29.1,27.7,21.5,11.8,74,45,20,30.36,30.17,6,0,0,0.00
2013-12-28,53.9,38.2,26.8,33.5,26.5,22.4,86,66,30,30.22,30.03,2,0,0,0.00
2013-12-29,54.0,40.8,28.5,29.2,20.8,12.7,85,48,29,30.28,30.06,7,0,0,0.00
2013-12-30,56.2,36.4,23.3,26.2,17.4,9.0,73,51,15,30.40,30.28,2,0,0,0.00
2013-12-31,60.3,39.2,26.7,31.5,26.3,22.7,86,64,27,30.39,30.20,3,0,0,0.00
2014-1-1,62.8,43.3,28.0,32.3,25.4,16.1,87,55,25,30.28,30.17,6,0,0,0.00
2014-1-2,64.1,43.5,28.3,30.2,20.2,12.2,71,43,16,30.31,30.14,2,0,0,0.00